Schneifelwetter: Wetterstation Hallschlag, 537 m . NN
Wetterdaten: Freitag, 12.02.2010
Datum Zeit Temp. A. Feuchte A. Luftdruck Regen Wind Richtung Richtung Sonnenschein Helligkeit T Regen Taupunkt Windchill
12.02.2010 00:09 -7,1 C 98 % 1009 hPa 0,0 l/m 39,8 km/h (6 Bft) N-NO67.5 25 0 min 0 lux 0,00 min -7,4 C -26,4 C
12.02.2010 00:24 -7,1 C 98 % 1009 hPa 0,0 l/m 40,5 km/h (6 Bft) N-NO22.5 15 0 min 0 lux 0,00 min -7,4 C -26,6 C
12.02.2010 00:39 -7,1 C 98 % 1009 hPa 0,0 l/m 39,3 km/h (6 Bft) N-NO45 15 0 min 0 lux 0,00 min -7,4 C -26,3 C
12.02.2010 00:54 -7,1 C 98 % 1009 hPa 0,0 l/m 36,3 km/h (5 Bft) N45 5 0 min 0 lux 0,00 min -7,4 C -25,5 C
12.02.2010 01:09 -7,1 C 98 % 1009 hPa 0,0 l/m 38,3 km/h (5 Bft) N67.5 10 0 min 0 lux 0,00 min -7,4 C -26,0 C
12.02.2010 01:24 -7,1 C 98 % 1009 hPa 0,0 l/m 30,8 km/h (5 Bft) N67.5 10 0 min 0 lux 0,00 min -7,4 C -23,7 C
12.02.2010 01:39 -7,0 C 98 % 1009 hPa 0,0 l/m 35,0 km/h (5 Bft) N67.5 10 0 min 0 lux 0,00 min -7,3 C -24,9 C
12.02.2010 01:54 -7,0 C 97 % 1009 hPa 0,0 l/m 36,5 km/h (5 Bft) N-NO67.5 15 0 min 0 lux 0,00 min -7,4 C -25,4 C
12.02.2010 02:09 -6,9 C 97 % 1009 hPa 0,0 l/m 34,1 km/h (5 Bft) N22.5 5 0 min 0 lux 0,00 min -7,3 C -24,5 C
12.02.2010 02:24 -6,9 C 97 % 1009 hPa 0,0 l/m 31,8 km/h (5 Bft) N67.5 5 0 min 0 lux 0,00 min -7,3 C -23,7 C
12.02.2010 02:39 -6,8 C 97 % 1009 hPa 0,0 l/m 32,7 km/h (5 Bft) N22.5 10 0 min 0 lux 0,00 min -7,2 C -23,9 C
12.02.2010 02:54 -6,8 C 97 % 1010 hPa 0,0 l/m 33,5 km/h (5 Bft) N-NO22.5 15 0 min 0 lux 0,00 min -7,2 C -24,2 C
12.02.2010 03:09 -6,8 C 96 % 1010 hPa 0,0 l/m 34,3 km/h (5 Bft) N-NO67.5 20 0 min 0 lux 0,00 min -7,3 C -24,4 C
12.02.2010 03:24 -6,9 C 96 % 1010 hPa 0,0 l/m 33,2 km/h (5 Bft) N-NO22.5 15 0 min 0 lux 0,00 min -7,4 C -24,2 C
12.02.2010 03:39 -6,9 C 96 % 1010 hPa 0,0 l/m 38,9 km/h (6 Bft) N22.5 5 0 min 0 lux 0,00 min -7,4 C -25,9 C
12.02.2010 03:54 -7,0 C 95 % 1010 hPa 0,0 l/m 38,1 km/h (5 Bft) N67.5 5 0 min 0 lux 0,00 min -7,7 C -25,8 C
12.02.2010 04:09 -7,0 C 96 % 1010 hPa 0,0 l/m 32,2 km/h (5 Bft) N22.5 10 0 min 0 lux 0,00 min -7,5 C -24,0 C
12.02.2010 04:24 -7,1 C 96 % 1010 hPa 0,0 l/m 32,6 km/h (5 Bft) N67.5 5 0 min 0 lux 0,00 min -7,6 C -24,3 C
12.02.2010 04:39 -7,0 C 96 % 1010 hPa 0,0 l/m 34,6 km/h (5 Bft) N45 5 0 min 0 lux 0,00 min -7,5 C -24,8 C
12.02.2010 04:54 -7,1 C 96 % 1010 hPa 0,0 l/m 31,0 km/h (5 Bft) N-NO67.5 15 0 min 0 lux 0,00 min -7,6 C -23,8 C
12.02.2010 05:09 -7,1 C 96 % 1010 hPa 0,0 l/m 29,6 km/h (5 Bft) N-NO67.5 15 0 min 0 lux 0,00 min -7,6 C -23,2 C
12.02.2010 05:24 -7,1 C 96 % 1010 hPa 0,0 l/m 28,9 km/h (5 Bft) N67.5 360 0 min 0 lux 0,00 min -7,6 C -23,0 C
12.02.2010 05:39 -7,1 C 96 % 1010 hPa 0,0 l/m 33,4 km/h (5 Bft) N-NO67.5 25 0 min 0 lux 0,00 min -7,6 C -24,6 C
12.02.2010 05:54 -7,1 C 96 % 1010 hPa 0,0 l/m 29,8 km/h (5 Bft) N-NO22.5 25 0 min 0 lux 0,00 min -7,6 C -23,3 C
12.02.2010 06:09 -7,1 C 96 % 1010 hPa 0,0 l/m 26,9 km/h (4 Bft) N-NO67.5 15 0 min 0 lux 0,00 min -7,6 C -22,2 C
12.02.2010 06:24 -7,1 C 96 % 1011 hPa 0,0 l/m 28,3 km/h (4 Bft) N-NO67.5 15 0 min 0 lux 0,00 min -7,6 C -22,7 C
12.02.2010 06:39 -7,1 C 96 % 1010 hPa 0,0 l/m 31,5 km/h (5 Bft) N67.5 5 0 min 0 lux 0,00 min -7,6 C -23,9 C
12.02.2010 06:54 -7,2 C 95 % 1010 hPa 0,0 l/m 30,5 km/h (5 Bft) N67.5 360 0 min 0 lux 0,00 min -7,9 C -23,7 C
12.02.2010 07:09 -7,4 C 95 % 1011 hPa 0,0 l/m 28,8 km/h (4 Bft) N22.5 10 0 min 0 lux 0,00 min -8,1 C -23,4 C
12.02.2010 07:24 -7,3 C 96 % 1011 hPa 0,0 l/m 30,0 km/h (5 Bft) N22.5 10 0 min 55 lux 0,00 min -7,8 C -23,7 C
12.02.2010 07:39 -7,3 C 96 % 1011 hPa 0,0 l/m 29,1 km/h (5 Bft) N45 360 0 min 225 lux 0,00 min -7,8 C -23,3 C
12.02.2010 07:54 -7,4 C 95 % 1011 hPa 0,0 l/m 29,3 km/h (5 Bft) N22.5 5 0 min 960 lux 0,00 min -8,1 C -23,5 C
12.02.2010 08:09 -7,3 C 95 % 1011 hPa 0,0 l/m 35,2 km/h (5 Bft) N-NO67.5 15 0 min 2,91 klux 0,00 min -8,0 C -25,4 C
12.02.2010 08:24 -7,2 C 94 % 1011 hPa 0,0 l/m 32,4 km/h (5 Bft) N22.5 5 0 min 5,12 klux 0,00 min -8,0 C -24,4 C
12.02.2010 08:39 -7,2 C 93 % 1012 hPa 0,0 l/m 27,7 km/h (4 Bft) N22.5 5 0 min 6,60 klux 0,00 min -8,1 C -22,6 C
12.02.2010 08:54 -7,1 C 93 % 1012 hPa 0,0 l/m 24,1 km/h (4 Bft) N22.5 10 0 min 8,10 klux 0,00 min -8,0 C -20,9 C
12.02.2010 09:15 -7,0 C 93 % 1012 hPa 0,0 l/m 29,6 km/h (5 Bft) N45 5 0 min 9,7 klux 0,00 min -7,9 C -23,1 C
12.02.2010 09:30 -6,7 C 92 % 1012 hPa 0,0 l/m 22,9 km/h (4 Bft) N22.5 5 0 min 16,0 klux 0,00 min -7,8 C -19,8 C
12.02.2010 09:45 -6,6 C 91 % 1012 hPa 0,0 l/m 29,2 km/h (5 Bft) N22.5 5 0 min 14,0 klux 0,00 min -7,8 C -22,4 C
12.02.2010 10:00 -6,5 C 90 % 1012 hPa 0,0 l/m 22,9 km/h (4 Bft) N-NO67.5 15 0 min 16,1 klux 0,00 min -7,9 C -19,5 C
12.02.2010 10:15 -6,5 C 90 % 1012 hPa 0,0 l/m 23,6 km/h (4 Bft) N22.5 5 0 min 17,8 klux 0,00 min -7,9 C -19,9 C
12.02.2010 10:30 -6,4 C 89 % 1012 hPa 0,0 l/m 25,6 km/h (4 Bft) N45 355 0 min 25,5 klux 0,00 min -7,9 C -20,7 C
12.02.2010 10:46 -6,1 C 88 % 1012 hPa 0,0 l/m 29,4 km/h (5 Bft) N22.5 360 16 min 34,1 klux 0,00 min -7,8 C -21,8 C
12.02.2010 11:00 -6,0 C 87 % 1012 hPa 0,0 l/m 27,6 km/h (4 Bft) N45 360 14 min 37,0 klux 0,00 min -7,8 C -20,9 C
12.02.2010 11:15 -6,1 C 87 % 1012 hPa 0,0 l/m 29,3 km/h (5 Bft) N45 360 0 min 26,4 klux 0,00 min -7,9 C -21,7 C
12.02.2010 11:30 -5,9 C 87 % 1012 hPa 0,0 l/m 27,6 km/h (4 Bft) N45 360 15 min 29,0 klux 0,00 min -7,7 C -20,8 C
12.02.2010 11:45 -5,8 C 87 % 1012 hPa 0,0 l/m 26,2 km/h (4 Bft) N67.5 10 15 min 29,6 klux 0,00 min -7,6 C -20,1 C
12.02.2010 12:00 -5,6 C 87 % 1012 hPa 0,0 l/m 27,8 km/h (4 Bft) N67.5 5 15 min 27,6 klux 0,00 min -7,4 C -20,5 C
12.02.2010 12:15 -5,4 C 86 % 1012 hPa 0,0 l/m 34,1 km/h (5 Bft) N22.5 5 15 min 29,3 klux 0,00 min -7,4 C -22,3 C
12.02.2010 12:31 -5,1 C 86 % 1012 hPa 0,0 l/m 30,1 km/h (5 Bft) N45 360 16 min 40,2 klux 0,00 min -7,1 C -20,6 C
12.02.2010 12:45 -4,8 C 85 % 1012 hPa 0,0 l/m 28,1 km/h (4 Bft) N67.5 5 14 min 38,2 klux 0,00 min -6,9 C -19,5 C
12.02.2010 13:00 -4,7 C 84 % 1012 hPa 0,0 l/m 27,2 km/h (4 Bft) N-NO45 15 15 min 32,2 klux 0,00 min -7,0 C -19,0 C
12.02.2010 13:15 -4,6 C 84 % 1012 hPa 0,0 l/m 25,2 km/h (4 Bft) N22.5 10 15 min 33,7 klux 0,00 min -6,9 C -18,0 C
12.02.2010 13:30 -4,7 C 83 % 1012 hPa 0,0 l/m 28,5 km/h (4 Bft) N-NO67.5 25 15 min 34,3 klux 0,00 min -7,1 C -19,5 C
12.02.2010 13:45 -4,6 C 84 % 1012 hPa 0,0 l/m 24,8 km/h (4 Bft) N-NO22.5 15 15 min 32,1 klux 0,00 min -6,9 C -17,9 C
12.02.2010 14:01 -4,6 C 83 % 1012 hPa 0,0 l/m 27,7 km/h (4 Bft) N22.5 5 16 min 35,6 klux 0,00 min -7,0 C -19,0 C
12.02.2010 14:15 -4,6 C 84 % 1012 hPa 0,0 l/m 32,1 km/h (5 Bft) N-NO22.5 15 14 min 27,0 klux 0,00 min -6,9 C -20,6 C
12.02.2010 14:30 -4,7 C 84 % 1012 hPa 0,0 l/m 23,7 km/h (4 Bft) N-NO45 15 0 min 25,6 klux 0,00 min -7,0 C -17,5 C
12.02.2010 14:45 -4,8 C 84 % 1012 hPa 0,0 l/m 24,1 km/h (4 Bft) N45 5 0 min 24,0 klux 0,00 min -7,1 C -17,8 C
12.02.2010 15:00 -4,6 C 85 % 1012 hPa 0,0 l/m 21,8 km/h (4 Bft) N67.5 360 0 min 25,8 klux 0,00 min -6,7 C -16,5 C
12.02.2010 15:15 -4,6 C 83 % 1012 hPa 0,0 l/m 22,0 km/h (4 Bft) N67.5 360 15 min 27,6 klux 0,00 min -7,0 C -16,6 C
12.02.2010 15:30 -4,8 C 85 % 1012 hPa 0,0 l/m 18,8 km/h (3 Bft) N67.5 360 0 min 18,2 klux 0,00 min -6,9 C -15,2 C
12.02.2010 15:46 -5,0 C 86 % 1012 hPa 0,0 l/m 18,0 km/h (3 Bft) N22.5 5 0 min 16,7 klux 0,00 min -7,0 C -15,0 C
12.02.2010 16:00 -5,1 C 86 % 1012 hPa 0,0 l/m 19,1 km/h (3 Bft) N22.5 5 0 min 12,8 klux 0,00 min -7,1 C -15,7 C
12.02.2010 16:15 -5,5 C 86 % 1012 hPa 0,0 l/m 18,7 km/h (3 Bft) N45 350 0 min 11,8 klux 0,00 min -7,5 C -16,0 C
12.02.2010 16:30 -5,8 C 87 % 1013 hPa 0,0 l/m 20,2 km/h (4 Bft) N22.5 10 0 min 11,4 klux 0,00 min -7,6 C -17,2 C
12.02.2010 16:45 -6,0 C 88 % 1013 hPa 0,0 l/m 27,5 km/h (4 Bft) N22.5 5 0 min 8,90 klux 0,00 min -7,7 C -20,9 C
12.02.2010 17:00 -6,2 C 89 % 1013 hPa 0,0 l/m 16,7 km/h (3 Bft) N67.5 10 0 min 6,10 klux 0,00 min -7,7 C -15,7 C
12.02.2010 17:15 -6,3 C 89 % 1013 hPa 0,0 l/m 21,5 km/h (4 Bft) N67.5 360 0 min 3,84 klux 0,00 min -7,8 C -18,6 C
12.02.2010 17:31 -6,6 C 89 % 1013 hPa 0,0 l/m 18,6 km/h (3 Bft) N22.5 5 0 min 2,51 klux 0,00 min -8,1 C -17,3 C
12.02.2010 17:45 -6,7 C 90 % 1013 hPa 0,0 l/m 21,9 km/h (4 Bft) N45 360 0 min 1,22 klux 0,00 min -8,1 C -19,3 C
12.02.2010 18:00 -6,9 C 90 % 1013 hPa 0,0 l/m 24,7 km/h (4 Bft) N22.5 5 0 min 445 lux 0,00 min -8,3 C -20,9 C
12.02.2010 18:15 -6,9 C 91 % 1013 hPa 0,0 l/m 27,8 km/h (4 Bft) N45 360 0 min 68 lux 0,00 min -8,1 C -22,3 C
12.02.2010 18:30 -7,1 C 91 % 1013 hPa 0,0 l/m 29,4 km/h (5 Bft) N45 5 0 min 15 lux 0,00 min -8,3 C -23,2 C
12.02.2010 18:45 -7,2 C 92 % 1013 hPa 0,0 l/m 22,8 km/h (4 Bft) N22.5 5 0 min 3 lux 0,00 min -8,3 C -20,4 C
12.02.2010 19:01 -7,2 C 93 % 1013 hPa 0,0 l/m 18,1 km/h (3 Bft) N-NO22.5 15 0 min 0 lux 0,00 min -8,1 C -17,8 C
12.02.2010 19:15 -7,2 C 93 % 1013 hPa 0,0 l/m 20,1 km/h (4 Bft) N-NO22.5 20 0 min 0 lux 0,00 min -8,1 C -19,0 C
12.02.2010 19:30 -7,3 C 94 % 1013 hPa 0,0 l/m 16,5 km/h (3 Bft) N22.5 10 0 min 0 lux 0,00 min -8,1 C -16,9 C
12.02.2010 19:45 -7,3 C 94 % 1013 hPa 0,0 l/m 24,6 km/h (4 Bft) N22.5 5 0 min 0 lux 0,00 min -8,1 C -21,4 C
12.02.2010 20:00 -7,4 C 95 % 1014 hPa 0,0 l/m 20,8 km/h (4 Bft) N-NO45 15 0 min 0 lux 0,00 min -8,1 C -19,6 C
12.02.2010 20:15 -7,4 C 95 % 1014 hPa 0,0 l/m 17,2 km/h (3 Bft) N22.5 5 0 min 0 lux 0,00 min -8,1 C -17,5 C
12.02.2010 20:30 -7,4 C 94 % 1013 hPa 0,0 l/m 20,8 km/h (4 Bft) N45 10 0 min 0 lux 0,00 min -8,2 C -19,6 C
12.02.2010 20:46 -7,4 C 94 % 1013 hPa 0,0 l/m 20,0 km/h (4 Bft) N22.5 5 0 min 0 lux 0,00 min -8,2 C -19,2 C
12.02.2010 21:00 -7,5 C 93 % 1014 hPa 0,0 l/m 15,0 km/h (3 Bft) N-NO22.5 20 0 min 0 lux 0,00 min -8,4 C -16,1 C
12.02.2010 21:15 -7,5 C 93 % 1014 hPa 0,0 l/m 17,2 km/h (3 Bft) N-NO22.5 20 0 min 0 lux 0,00 min -8,4 C -17,6 C
12.02.2010 21:30 -7,6 C 93 % 1014 hPa 0,0 l/m 11,3 km/h (2 Bft) NO22.5 35 0 min 0 lux 0,00 min -8,5 C -13,1 C
12.02.2010 21:45 -7,7 C 93 % 1014 hPa 0,0 l/m 14,5 km/h (3 Bft) N-NO 15 0 min 0 lux 0,00 min -8,6 C -15,9 C
12.02.2010 22:00 -7,7 C 94 % 1014 hPa 0,0 l/m 11,6 km/h (2 Bft) N-NO 20 0 min 0 lux 0,00 min -8,5 C -13,5 C
12.02.2010 22:15 -7,7 C 94 % 1014 hPa 0,0 l/m 15,5 km/h (3 Bft) N-NO22.5 25 0 min 0 lux 0,00 min -8,5 C -16,7 C
12.02.2010 22:31 -7,7 C 94 % 1014 hPa 0,0 l/m 13,0 km/h (3 Bft) N-NO22.5 20 0 min 0 lux 0,00 min -8,5 C -14,7 C
12.02.2010 22:45 -7,7 C 94 % 1014 hPa 0,0 l/m 15,3 km/h (3 Bft) N-NO22.5 25 0 min 0 lux 0,00 min -8,5 C -16,5 C
12.02.2010 23:00 -7,8 C 94 % 1014 hPa 0,0 l/m 17,4 km/h (3 Bft) N-NO22.5 25 0 min 0 lux 0,00 min -8,6 C -18,1 C
12.02.2010 23:15 -7,9 C 94 % 1014 hPa 0,0 l/m 19,2 km/h (3 Bft) N-NO45 25 0 min 0 lux 0,00 min -8,7 C -19,4 C
12.02.2010 23:30 -7,9 C 94 % 1014 hPa 0,0 l/m 23,0 km/h (4 Bft) N-NO22.5 30 0 min 0 lux 0,00 min -8,7 C -21,5 C
12.02.2010 23:45 -7,9 C 94 % 1014 hPa 0,0 l/m 20,0 km/h (4 Bft) N-NO22.5 25 0 min 0 lux 0,00 min -8,7 C -19,8 C
_ Min-Zeit 23:15 13:30 00:09 - 21:30 - - - - - 23:15 00:24
Minimum _ -7,9 C 83 % 1009 hPa - 11,3 km/h (2 Bft) - - - - - -8,7 C -26,6 C
_ Max-Zeit 13:15 00:09 20:00 00:09 00:24 - - 10:46 12:31 00:09 15:00 21:30
Maximum _ -4,6 C 98 % 1014 hPa 0,0 l/m 40,5 km/h
N-NO (6 Bft)
- - 16 min 40,2 klux 0,00 min -6,7 C -13,1 C
Durchschnitt _ -6,6 C 92 % 1012 hPa #0,0 l/m 26,4 km/h (4 Bft) N - #3:45 h 8,49 klux #0 min. -7,7 C -20,8 C